sensor_id;sensor_type;location;lat;lon;timestamp;P1;durP1;ratioP1;P2;durP2;ratioP2
7320;SDS011;3701;49.346;8.798;2022-07-23T00:01:41;11.10;;;9.90;;
7320;SDS011;3701;49.346;8.798;2022-07-23T00:04:06;11.27;;;9.93;;
7320;SDS011;3701;49.346;8.798;2022-07-23T00:06:31;13.77;;;9.27;;
7320;SDS011;3701;49.346;8.798;2022-07-23T00:08:57;10.97;;;9.70;;
7320;SDS011;3701;49.346;8.798;2022-07-23T00:11:22;14.30;;;9.13;;
7320;SDS011;3701;49.346;8.798;2022-07-23T00:13:52;11.83;;;10.63;;
7320;SDS011;3701;49.346;8.798;2022-07-23T00:16:18;12.13;;;9.57;;
7320;SDS011;3701;49.346;8.798;2022-07-23T00:18:43;15.10;;;10.33;;
7320;SDS011;3701;49.346;8.798;2022-07-23T00:21:08;13.43;;;10.37;;
7320;SDS011;3701;49.346;8.798;2022-07-23T00:23:34;10.87;;;9.60;;
7320;SDS011;3701;49.346;8.798;2022-07-23T00:26:01;13.90;;;9.80;;
7320;SDS011;3701;49.346;8.798;2022-07-23T00:28:32;11.20;;;9.63;;
7320;SDS011;3701;49.346;8.798;2022-07-23T00:31:02;11.53;;;10.27;;
7320;SDS011;3701;49.346;8.798;2022-07-23T00:33:28;12.00;;;9.73;;
7320;SDS011;3701;49.346;8.798;2022-07-23T00:35:53;11.03;;;9.43;;
7320;SDS011;3701;49.346;8.798;2022-07-23T00:38:19;13.20;;;9.47;;
7320;SDS011;3701;49.346;8.798;2022-07-23T00:40:44;11.60;;;9.50;;
7320;SDS011;3701;49.346;8.798;2022-07-23T00:43:12;11.70;;;10.50;;
7320;SDS011;3701;49.346;8.798;2022-07-23T00:45:37;14.40;;;10.80;;
7320;SDS011;3701;49.346;8.798;2022-07-23T00:48:06;11.47;;;10.20;;
7320;SDS011;3701;49.346;8.798;2022-07-23T00:50:31;15.87;;;10.30;;
7320;SDS011;3701;49.346;8.798;2022-07-23T00:52:59;13.40;;;10.30;;
7320;SDS011;3701;49.346;8.798;2022-07-23T00:55:24;12.93;;;10.00;;
7320;SDS011;3701;49.346;8.798;2022-07-23T00:57:51;12.63;;;9.97;;
7320;SDS011;3701;49.346;8.798;2022-07-23T01:00:17;15.80;;;10.60;;
7320;SDS011;3701;49.346;8.798;2022-07-23T01:02:46;17.57;;;10.37;;
7320;SDS011;3701;49.346;8.798;2022-07-23T01:05:13;11.27;;;10.07;;
7320;SDS011;3701;49.346;8.798;2022-07-23T01:07:42;14.13;;;11.33;;
7320;SDS011;3701;49.346;8.798;2022-07-23T01:10:10;11.37;;;9.93;;
7320;SDS011;3701;49.346;8.798;2022-07-23T01:12:54;12.07;;;10.23;;
7320;SDS011;3701;49.346;8.798;2022-07-23T01:15:22;13.17;;;10.30;;
7320;SDS011;3701;49.346;8.798;2022-07-23T01:17:50;10.90;;;9.80;;
7320;SDS011;3701;49.346;8.798;2022-07-23T01:20:18;15.23;;;10.20;;
7320;SDS011;3701;49.346;8.798;2022-07-23T01:22:47;12.77;;;10.00;;
7320;SDS011;3701;49.346;8.798;2022-07-23T01:25:12;12.50;;;9.43;;
7320;SDS011;3701;49.346;8.798;2022-07-23T01:27:40;13.40;;;10.53;;
7320;SDS011;3701;49.346;8.798;2022-07-23T01:30:06;14.33;;;10.23;;
7320;SDS011;3701;49.346;8.798;2022-07-23T01:32:32;12.70;;;10.73;;
7320;SDS011;3701;49.346;8.798;2022-07-23T01:34:59;13.03;;;10.57;;
7320;SDS011;3701;49.346;8.798;2022-07-23T01:37:24;13.67;;;10.70;;
7320;SDS011;3701;49.346;8.798;2022-07-23T01:39:54;11.97;;;10.10;;
7320;SDS011;3701;49.346;8.798;2022-07-23T01:42:20;12.30;;;10.90;;
7320;SDS011;3701;49.346;8.798;2022-07-23T01:44:45;12.70;;;11.40;;
7320;SDS011;3701;49.346;8.798;2022-07-23T01:47:10;13.90;;;11.53;;
7320;SDS011;3701;49.346;8.798;2022-07-23T01:49:38;13.23;;;10.90;;
7320;SDS011;3701;49.346;8.798;2022-07-23T01:52:03;12.27;;;10.73;;
7320;SDS011;3701;49.346;8.798;2022-07-23T01:54:32;12.20;;;10.80;;
7320;SDS011;3701;49.346;8.798;2022-07-23T01:56:59;12.90;;;11.60;;
7320;SDS011;3701;49.346;8.798;2022-07-23T01:59:25;15.83;;;10.50;;
7320;SDS011;3701;49.346;8.798;2022-07-23T02:01:53;12.67;;;10.30;;
7320;SDS011;3701;49.346;8.798;2022-07-23T02:04:19;13.83;;;11.10;;
7320;SDS011;3701;49.346;8.798;2022-07-23T02:06:46;12.73;;;11.43;;
7320;SDS011;3701;49.346;8.798;2022-07-23T02:09:15;12.33;;;11.03;;
7320;SDS011;3701;49.346;8.798;2022-07-23T02:11:42;16.07;;;11.10;;
7320;SDS011;3701;49.346;8.798;2022-07-23T02:14:08;13.90;;;10.70;;
7320;SDS011;3701;49.346;8.798;2022-07-23T02:16:36;12.27;;;10.90;;
7320;SDS011;3701;49.346;8.798;2022-07-23T02:19:04;14.43;;;12.07;;
7320;SDS011;3701;49.346;8.798;2022-07-23T02:21:31;12.73;;;10.67;;
7320;SDS011;3701;49.346;8.798;2022-07-23T02:23:57;11.37;;;10.27;;
7320;SDS011;3701;49.346;8.798;2022-07-23T02:26:24;12.47;;;11.17;;
7320;SDS011;3701;49.346;8.798;2022-07-23T02:28:49;15.27;;;10.67;;
7320;SDS011;3701;49.346;8.798;2022-07-23T02:31:15;17.20;;;11.30;;
7320;SDS011;3701;49.346;8.798;2022-07-23T02:33:40;14.17;;;10.60;;
7320;SDS011;3701;49.346;8.798;2022-07-23T02:36:06;12.90;;;11.00;;
7320;SDS011;3701;49.346;8.798;2022-07-23T02:38:31;17.70;;;11.10;;
7320;SDS011;3701;49.346;8.798;2022-07-23T02:40:59;16.90;;;11.80;;
7320;SDS011;3701;49.346;8.798;2022-07-23T02:43:27;14.43;;;12.20;;
7320;SDS011;3701;49.346;8.798;2022-07-23T02:45:55;15.73;;;12.10;;
7320;SDS011;3701;49.346;8.798;2022-07-23T02:48:23;15.87;;;11.53;;
7320;SDS011;3701;49.346;8.798;2022-07-23T02:50:51;16.27;;;12.17;;
7320;SDS011;3701;49.346;8.798;2022-07-23T02:53:17;16.13;;;11.70;;
7320;SDS011;3701;49.346;8.798;2022-07-23T02:55:45;15.50;;;12.40;;
7320;SDS011;3701;49.346;8.798;2022-07-23T02:58:10;13.23;;;11.83;;
7320;SDS011;3701;49.346;8.798;2022-07-23T03:00:38;16.43;;;11.73;;
7320;SDS011;3701;49.346;8.798;2022-07-23T03:03:03;13.63;;;11.50;;
7320;SDS011;3701;49.346;8.798;2022-07-23T03:05:31;14.17;;;12.43;;
7320;SDS011;3701;49.346;8.798;2022-07-23T03:07:58;12.40;;;11.10;;
7320;SDS011;3701;49.346;8.798;2022-07-23T03:10:24;18.53;;;11.63;;
7320;SDS011;3701;49.346;8.798;2022-07-23T03:12:51;14.60;;;12.27;;
7320;SDS011;3701;49.346;8.798;2022-07-23T03:15:19;14.67;;;11.93;;
7320;SDS011;3701;49.346;8.798;2022-07-23T03:17:44;12.67;;;11.27;;
7320;SDS011;3701;49.346;8.798;2022-07-23T03:20:10;16.20;;;12.57;;
7320;SDS011;3701;49.346;8.798;2022-07-23T03:22:35;14.43;;;12.40;;
7320;SDS011;3701;49.346;8.798;2022-07-23T03:25:00;14.00;;;11.97;;
7320;SDS011;3701;49.346;8.798;2022-07-23T03:27:30;15.20;;;11.63;;
7320;SDS011;3701;49.346;8.798;2022-07-23T03:29:59;17.87;;;12.43;;
7320;SDS011;3701;49.346;8.798;2022-07-23T03:32:24;17.10;;;11.47;;
7320;SDS011;3701;49.346;8.798;2022-07-23T03:34:50;13.73;;;11.97;;
7320;SDS011;3701;49.346;8.798;2022-07-23T03:37:16;16.00;;;11.67;;
7320;SDS011;3701;49.346;8.798;2022-07-23T03:39:42;13.43;;;11.00;;
7320;SDS011;3701;49.346;8.798;2022-07-23T03:42:07;14.40;;;10.90;;
7320;SDS011;3701;49.346;8.798;2022-07-23T03:44:33;13.20;;;10.77;;
7320;SDS011;3701;49.346;8.798;2022-07-23T03:47:01;12.80;;;11.37;;
7320;SDS011;3701;49.346;8.798;2022-07-23T03:49:29;13.43;;;11.27;;
7320;SDS011;3701;49.346;8.798;2022-07-23T03:52:00;13.90;;;12.47;;
7320;SDS011;3701;49.346;8.798;2022-07-23T03:54:28;12.73;;;11.43;;
7320;SDS011;3701;49.346;8.798;2022-07-23T03:56:53;11.53;;;10.33;;
7320;SDS011;3701;49.346;8.798;2022-07-23T03:59:19;14.10;;;11.67;;
7320;SDS011;3701;49.346;8.798;2022-07-23T04:01:47;13.90;;;10.93;;
7320;SDS011;3701;49.346;8.798;2022-07-23T04:04:12;13.77;;;11.20;;
7320;SDS011;3701;49.346;8.798;2022-07-23T04:06:37;13.87;;;12.30;;
7320;SDS011;3701;49.346;8.798;2022-07-23T04:09:05;21.20;;;11.57;;
7320;SDS011;3701;49.346;8.798;2022-07-23T04:11:33;13.40;;;11.47;;
7320;SDS011;3701;49.346;8.798;2022-07-23T04:13:58;12.73;;;10.77;;
7320;SDS011;3701;49.346;8.798;2022-07-23T04:16:26;16.23;;;11.40;;
7320;SDS011;3701;49.346;8.798;2022-07-23T04:18:51;14.83;;;11.50;;
7320;SDS011;3701;49.346;8.798;2022-07-23T04:21:16;15.63;;;11.97;;
7320;SDS011;3701;49.346;8.798;2022-07-23T04:23:44;14.83;;;12.30;;
7320;SDS011;3701;49.346;8.798;2022-07-23T04:26:15;12.77;;;11.30;;
7320;SDS011;3701;49.346;8.798;2022-07-23T04:28:40;13.13;;;11.40;;
7320;SDS011;3701;49.346;8.798;2022-07-23T04:31:08;14.70;;;11.60;;
7320;SDS011;3701;49.346;8.798;2022-07-23T04:33:33;12.90;;;11.43;;
7320;SDS011;3701;49.346;8.798;2022-07-23T04:36:01;14.50;;;11.37;;
7320;SDS011;3701;49.346;8.798;2022-07-23T04:38:27;16.03;;;11.73;;
7320;SDS011;3701;49.346;8.798;2022-07-23T04:40:52;14.70;;;12.07;;
7320;SDS011;3701;49.346;8.798;2022-07-23T04:43:18;13.67;;;11.40;;
7320;SDS011;3701;49.346;8.798;2022-07-23T04:45:46;15.10;;;11.57;;
7320;SDS011;3701;49.346;8.798;2022-07-23T04:48:11;14.00;;;10.80;;
7320;SDS011;3701;49.346;8.798;2022-07-23T04:50:36;11.80;;;10.17;;
7320;SDS011;3701;49.346;8.798;2022-07-23T04:53:02;13.10;;;10.83;;
7320;SDS011;3701;49.346;8.798;2022-07-23T04:55:29;12.43;;;11.00;;
7320;SDS011;3701;49.346;8.798;2022-07-23T04:57:55;13.30;;;11.47;;
7320;SDS011;3701;49.346;8.798;2022-07-23T05:00:20;10.97;;;9.57;;
7320;SDS011;3701;49.346;8.798;2022-07-23T05:02:48;12.03;;;10.43;;
7320;SDS011;3701;49.346;8.798;2022-07-23T05:05:13;14.57;;;11.40;;
7320;SDS011;3701;49.346;8.798;2022-07-23T05:07:38;11.90;;;10.57;;
7320;SDS011;3701;49.346;8.798;2022-07-23T05:10:04;15.47;;;12.27;;
7320;SDS011;3701;49.346;8.798;2022-07-23T05:12:29;14.07;;;11.03;;
7320;SDS011;3701;49.346;8.798;2022-07-23T05:15:00;9.87;;;8.60;;
7320;SDS011;3701;49.346;8.798;2022-07-23T05:17:25;13.00;;;9.90;;
7320;SDS011;3701;49.346;8.798;2022-07-23T05:19:51;10.67;;;8.60;;
7320;SDS011;3701;49.346;8.798;2022-07-23T05:22:19;11.47;;;9.70;;
7320;SDS011;3701;49.346;8.798;2022-07-23T05:24:44;11.57;;;8.63;;
7320;SDS011;3701;49.346;8.798;2022-07-23T05:27:11;13.80;;;8.23;;
7320;SDS011;3701;49.346;8.798;2022-07-23T05:29:37;11.37;;;9.20;;
7320;SDS011;3701;49.346;8.798;2022-07-23T05:32:02;11.67;;;9.50;;
7320;SDS011;3701;49.346;8.798;2022-07-23T05:34:32;10.33;;;8.40;;
7320;SDS011;3701;49.346;8.798;2022-07-23T05:37:00;10.63;;;8.20;;
7320;SDS011;3701;49.346;8.798;2022-07-23T05:39:28;9.83;;;8.40;;
7320;SDS011;3701;49.346;8.798;2022-07-23T05:41:53;11.57;;;8.70;;
7320;SDS011;3701;49.346;8.798;2022-07-23T05:44:19;9.57;;;8.23;;
7320;SDS011;3701;49.346;8.798;2022-07-23T05:46:49;10.97;;;8.40;;
7320;SDS011;3701;49.346;8.798;2022-07-23T05:49:16;13.03;;;9.37;;
7320;SDS011;3701;49.346;8.798;2022-07-23T05:51:42;11.37;;;8.33;;
7320;SDS011;3701;49.346;8.798;2022-07-23T05:54:10;12.97;;;9.73;;
7320;SDS011;3701;49.346;8.798;2022-07-23T05:56:38;17.40;;;9.43;;
7320;SDS011;3701;49.346;8.798;2022-07-23T05:59:03;12.03;;;9.57;;
7320;SDS011;3701;49.346;8.798;2022-07-23T06:01:28;12.87;;;9.47;;
7320;SDS011;3701;49.346;8.798;2022-07-23T06:03:54;13.93;;;9.27;;
7320;SDS011;3701;49.346;8.798;2022-07-23T06:06:19;10.33;;;9.17;;
7320;SDS011;3701;49.346;8.798;2022-07-23T06:08:46;14.23;;;8.70;;
7320;SDS011;3701;49.346;8.798;2022-07-23T06:11:12;10.27;;;9.17;;
7320;SDS011;3701;49.346;8.798;2022-07-23T06:13:37;10.73;;;8.70;;
7320;SDS011;3701;49.346;8.798;2022-07-23T06:16:02;12.97;;;9.00;;
7320;SDS011;3701;49.346;8.798;2022-07-23T06:18:30;12.80;;;10.23;;
7320;SDS011;3701;49.346;8.798;2022-07-23T06:20:58;10.93;;;9.17;;
7320;SDS011;3701;49.346;8.798;2022-07-23T06:23:25;11.80;;;9.07;;
7320;SDS011;3701;49.346;8.798;2022-07-23T06:25:51;11.47;;;9.00;;
7320;SDS011;3701;49.346;8.798;2022-07-23T06:28:16;14.30;;;8.43;;
7320;SDS011;3701;49.346;8.798;2022-07-23T06:30:42;13.67;;;9.30;;
7320;SDS011;3701;49.346;8.798;2022-07-23T06:33:09;10.83;;;8.83;;
7320;SDS011;3701;49.346;8.798;2022-07-23T06:35:36;11.10;;;9.07;;
7320;SDS011;3701;49.346;8.798;2022-07-23T06:38:01;13.30;;;8.73;;
7320;SDS011;3701;49.346;8.798;2022-07-23T06:40:29;10.37;;;8.80;;
7320;SDS011;3701;49.346;8.798;2022-07-23T06:42:57;11.47;;;9.30;;
7320;SDS011;3701;49.346;8.798;2022-07-23T06:45:23;11.20;;;9.17;;
7320;SDS011;3701;49.346;8.798;2022-07-23T06:47:51;11.23;;;9.33;;
7320;SDS011;3701;49.346;8.798;2022-07-23T06:50:16;10.03;;;8.80;;
7320;SDS011;3701;49.346;8.798;2022-07-23T06:52:42;13.17;;;8.80;;
7320;SDS011;3701;49.346;8.798;2022-07-23T06:55:10;12.07;;;10.47;;
7320;SDS011;3701;49.346;8.798;2022-07-23T06:57:36;12.20;;;8.80;;
7320;SDS011;3701;49.346;8.798;2022-07-23T07:00:01;11.77;;;9.03;;
7320;SDS011;3701;49.346;8.798;2022-07-23T07:02:29;10.63;;;9.40;;
7320;SDS011;3701;49.346;8.798;2022-07-23T07:04:56;9.57;;;8.57;;
7320;SDS011;3701;49.346;8.798;2022-07-23T07:07:22;13.60;;;10.47;;
7320;SDS011;3701;49.346;8.798;2022-07-23T07:09:47;11.80;;;9.80;;
7320;SDS011;3701;49.346;8.798;2022-07-23T07:12:14;12.40;;;9.90;;
7320;SDS011;3701;49.346;8.798;2022-07-23T07:14:40;12.67;;;10.90;;
7320;SDS011;3701;49.346;8.798;2022-07-23T07:17:07;15.73;;;11.10;;
7320;SDS011;3701;49.346;8.798;2022-07-23T07:19:38;11.83;;;10.50;;
7320;SDS011;3701;49.346;8.798;2022-07-23T07:22:06;11.37;;;9.10;;
7320;SDS011;3701;49.346;8.798;2022-07-23T07:24:36;13.30;;;10.10;;
7320;SDS011;3701;49.346;8.798;2022-07-23T07:27:01;12.57;;;9.10;;
7320;SDS011;3701;49.346;8.798;2022-07-23T07:29:29;12.87;;;9.80;;
7320;SDS011;3701;49.346;8.798;2022-07-23T07:31:57;15.30;;;9.87;;
7320;SDS011;3701;49.346;8.798;2022-07-23T07:34:22;11.43;;;8.60;;
7320;SDS011;3701;49.346;8.798;2022-07-23T07:36:52;10.93;;;9.63;;
7320;SDS011;3701;49.346;8.798;2022-07-23T07:39:22;11.90;;;9.33;;
7320;SDS011;3701;49.346;8.798;2022-07-23T07:41:49;10.17;;;8.23;;
7320;SDS011;3701;49.346;8.798;2022-07-23T07:44:15;10.07;;;8.27;;
7320;SDS011;3701;49.346;8.798;2022-07-23T07:46:42;10.70;;;8.87;;
7320;SDS011;3701;49.346;8.798;2022-07-23T07:49:13;15.33;;;8.77;;
7320;SDS011;3701;49.346;8.798;2022-07-23T07:51:42;12.40;;;9.53;;
7320;SDS011;3701;49.346;8.798;2022-07-23T07:54:09;11.43;;;9.57;;
7320;SDS011;3701;49.346;8.798;2022-07-23T07:56:34;8.60;;;7.70;;
7320;SDS011;3701;49.346;8.798;2022-07-23T07:59:00;11.30;;;9.07;;
7320;SDS011;3701;49.346;8.798;2022-07-23T08:01:26;11.33;;;8.70;;
7320;SDS011;3701;49.346;8.798;2022-07-23T08:03:51;10.30;;;8.40;;
7320;SDS011;3701;49.346;8.798;2022-07-23T08:06:19;10.23;;;8.40;;
7320;SDS011;3701;49.346;8.798;2022-07-23T08:08:47;12.70;;;9.20;;
7320;SDS011;3701;49.346;8.798;2022-07-23T08:11:15;13.53;;;9.17;;
7320;SDS011;3701;49.346;8.798;2022-07-23T08:13:43;10.93;;;8.43;;
7320;SDS011;3701;49.346;8.798;2022-07-23T08:16:09;11.37;;;7.97;;
7320;SDS011;3701;49.346;8.798;2022-07-23T08:18:35;10.10;;;8.23;;
7320;SDS011;3701;49.346;8.798;2022-07-23T08:21:00;14.10;;;8.50;;
7320;SDS011;3701;49.346;8.798;2022-07-23T08:23:31;11.00;;;8.73;;
7320;SDS011;3701;49.346;8.798;2022-07-23T08:25:57;11.07;;;8.57;;
7320;SDS011;3701;49.346;8.798;2022-07-23T08:28:27;10.93;;;8.10;;
7320;SDS011;3701;49.346;8.798;2022-07-23T08:30:52;10.07;;;8.07;;
7320;SDS011;3701;49.346;8.798;2022-07-23T08:33:18;8.67;;;7.80;;
7320;SDS011;3701;49.346;8.798;2022-07-23T08:35:47;12.33;;;8.57;;
7320;SDS011;3701;49.346;8.798;2022-07-23T08:38:14;12.63;;;8.00;;
7320;SDS011;3701;49.346;8.798;2022-07-23T08:40:47;9.23;;;7.33;;
7320;SDS011;3701;49.346;8.798;2022-07-23T08:43:15;9.00;;;7.10;;
7320;SDS011;3701;49.346;8.798;2022-07-23T08:45:45;8.17;;;7.37;;
7320;SDS011;3701;49.346;8.798;2022-07-23T08:48:20;8.63;;;7.50;;
7320;SDS011;3701;49.346;8.798;2022-07-23T08:50:51;6.90;;;6.23;;
7320;SDS011;3701;49.346;8.798;2022-07-23T08:53:20;9.60;;;7.83;;
7320;SDS011;3701;49.346;8.798;2022-07-23T08:55:46;8.57;;;7.33;;
7320;SDS011;3701;49.346;8.798;2022-07-23T08:58:15;7.83;;;7.03;;
7320;SDS011;3701;49.346;8.798;2022-07-23T09:00:42;8.07;;;7.27;;
7320;SDS011;3701;49.346;8.798;2022-07-23T09:03:11;8.47;;;7.57;;
7320;SDS011;3701;49.346;8.798;2022-07-23T09:05:40;8.20;;;7.40;;
7320;SDS011;3701;49.346;8.798;2022-07-23T09:08:12;8.07;;;7.27;;
7320;SDS011;3701;49.346;8.798;2022-07-23T09:10:50;8.63;;;7.53;;
7320;SDS011;3701;49.346;8.798;2022-07-23T09:18:54;10.03;;;7.93;;
7320;SDS011;3701;49.346;8.798;2022-07-23T09:29:03;9.10;;;7.30;;
7320;SDS011;3701;49.346;8.798;2022-07-23T09:31:32;10.00;;;7.63;;
7320;SDS011;3701;49.346;8.798;2022-07-23T09:34:15;8.87;;;7.97;;
7320;SDS011;3701;49.346;8.798;2022-07-23T09:36:51;8.90;;;7.67;;
7320;SDS011;3701;49.346;8.798;2022-07-23T09:39:28;8.33;;;7.43;;
7320;SDS011;3701;49.346;8.798;2022-07-23T09:41:55;8.90;;;7.47;;
7320;SDS011;3701;49.346;8.798;2022-07-23T09:44:21;9.63;;;7.13;;
7320;SDS011;3701;49.346;8.798;2022-07-23T09:46:49;8.23;;;7.40;;
7320;SDS011;3701;49.346;8.798;2022-07-23T09:49:24;8.77;;;7.60;;
7320;SDS011;3701;49.346;8.798;2022-07-23T09:51:53;9.27;;;7.80;;
7320;SDS011;3701;49.346;8.798;2022-07-23T09:54:29;9.23;;;8.17;;
7320;SDS011;3701;49.346;8.798;2022-07-23T09:57:09;10.40;;;7.27;;
7320;SDS011;3701;49.346;8.798;2022-07-23T09:59:46;12.57;;;8.83;;
7320;SDS011;3701;49.346;8.798;2022-07-23T10:02:12;8.90;;;8.00;;
7320;SDS011;3701;49.346;8.798;2022-07-23T10:04:42;11.03;;;8.00;;
7320;SDS011;3701;49.346;8.798;2022-07-23T10:07:08;11.07;;;7.97;;
7320;SDS011;3701;49.346;8.798;2022-07-23T10:09:38;8.97;;;8.10;;
7320;SDS011;3701;49.346;8.798;2022-07-23T10:12:09;12.30;;;8.50;;
7320;SDS011;3701;49.346;8.798;2022-07-23T10:14:50;8.80;;;7.23;;
7320;SDS011;3701;49.346;8.798;2022-07-23T10:17:18;14.03;;;10.43;;
7320;SDS011;3701;49.346;8.798;2022-07-23T10:19:46;9.63;;;7.87;;
7320;SDS011;3701;49.346;8.798;2022-07-23T10:22:15;10.57;;;8.30;;
7320;SDS011;3701;49.346;8.798;2022-07-23T10:24:53;7.70;;;6.90;;
7320;SDS011;3701;49.346;8.798;2022-07-23T10:36:01;8.17;;;6.47;;
7320;SDS011;3701;49.346;8.798;2022-07-23T10:38:53;7.80;;;7.10;;
7320;SDS011;3701;49.346;8.798;2022-07-23T10:41:35;7.90;;;6.20;;
7320;SDS011;3701;49.346;8.798;2022-07-23T10:49:34;6.73;;;6.13;;
7320;SDS011;3701;49.346;8.798;2022-07-23T10:52:18;7.30;;;6.37;;
7320;SDS011;3701;49.346;8.798;2022-07-23T10:54:49;8.23;;;7.40;;
7320;SDS011;3701;49.346;8.798;2022-07-23T10:57:18;6.93;;;6.23;;
7320;SDS011;3701;49.346;8.798;2022-07-23T11:02:39;7.67;;;6.50;;
7320;SDS011;3701;49.346;8.798;2022-07-23T11:07:36;7.20;;;6.50;;
7320;SDS011;3701;49.346;8.798;2022-07-23T11:10:32;6.70;;;6.10;;
7320;SDS011;3701;49.346;8.798;2022-07-23T11:13:10;6.67;;;6.07;;
7320;SDS011;3701;49.346;8.798;2022-07-23T11:32:02;8.37;;;7.20;;
7320;SDS011;3701;49.346;8.798;2022-07-23T11:37:00;8.80;;;6.77;;
7320;SDS011;3701;49.346;8.798;2022-07-23T11:39:29;7.57;;;5.80;;
7320;SDS011;3701;49.346;8.798;2022-07-23T11:41:57;7.18;;;6.32;;
7320;SDS011;3701;49.346;8.798;2022-07-23T11:44:27;6.00;;;5.40;;
7320;SDS011;3701;49.346;8.798;2022-07-23T11:47:03;6.33;;;5.73;;
7320;SDS011;3701;49.346;8.798;2022-07-23T11:49:38;6.83;;;6.10;;
7320;SDS011;3701;49.346;8.798;2022-07-23T11:52:08;8.27;;;6.40;;
7320;SDS011;3701;49.346;8.798;2022-07-23T11:54:49;7.17;;;6.47;;
7320;SDS011;3701;49.346;8.798;2022-07-23T11:57:18;6.17;;;5.53;;
7320;SDS011;3701;49.346;8.798;2022-07-23T11:59:50;7.97;;;7.17;;
7320;SDS011;3701;49.346;8.798;2022-07-23T12:02:19;8.00;;;6.20;;
7320;SDS011;3701;49.346;8.798;2022-07-23T12:04:46;8.80;;;6.40;;
7320;SDS011;3701;49.346;8.798;2022-07-23T12:10:16;7.53;;;5.77;;
7320;SDS011;3701;49.346;8.798;2022-07-23T12:15:15;6.43;;;5.80;;
7320;SDS011;3701;49.346;8.798;2022-07-23T12:17:45;7.32;;;5.90;;
7320;SDS011;3701;49.346;8.798;2022-07-23T12:20:13;6.77;;;5.27;;
7320;SDS011;3701;49.346;8.798;2022-07-23T12:22:41;5.38;;;4.93;;
7320;SDS011;3701;49.346;8.798;2022-07-23T12:25:13;8.90;;;5.50;;
7320;SDS011;3701;49.346;8.798;2022-07-23T12:27:44;6.90;;;5.15;;
7320;SDS011;3701;49.346;8.798;2022-07-23T12:30:23;5.95;;;5.40;;
7320;SDS011;3701;49.346;8.798;2022-07-23T12:32:56;6.75;;;5.10;;
7320;SDS011;3701;49.346;8.798;2022-07-23T12:35:23;6.07;;;5.53;;
7320;SDS011;3701;49.346;8.798;2022-07-23T12:38:00;6.85;;;6.13;;
7320;SDS011;3701;49.346;8.798;2022-07-23T12:40:28;6.70;;;6.05;;
7320;SDS011;3701;49.346;8.798;2022-07-23T12:43:06;6.97;;;6.33;;
7320;SDS011;3701;49.346;8.798;2022-07-23T12:45:43;7.40;;;6.70;;
7320;SDS011;3701;49.346;8.798;2022-07-23T12:48:15;7.63;;;6.80;;
7320;SDS011;3701;49.346;8.798;2022-07-23T12:53:29;9.77;;;7.47;;
7320;SDS011;3701;49.346;8.798;2022-07-23T12:55:58;8.33;;;6.93;;
7320;SDS011;3701;49.346;8.798;2022-07-23T12:58:43;9.40;;;7.00;;
7320;SDS011;3701;49.346;8.798;2022-07-23T13:04:04;7.20;;;6.40;;
7320;SDS011;3701;49.346;8.798;2022-07-23T13:06:38;7.57;;;6.87;;
7320;SDS011;3701;49.346;8.798;2022-07-23T13:09:11;7.73;;;6.93;;
7320;SDS011;3701;49.346;8.798;2022-07-23T13:11:39;8.53;;;7.60;;
7320;SDS011;3701;49.346;8.798;2022-07-23T13:14:05;9.17;;;8.00;;
7320;SDS011;3701;49.346;8.798;2022-07-23T13:16:35;7.97;;;7.20;;
7320;SDS011;3701;49.346;8.798;2022-07-23T13:19:02;9.93;;;8.03;;
7320;SDS011;3701;49.346;8.798;2022-07-23T13:21:30;8.90;;;8.00;;
7320;SDS011;3701;49.346;8.798;2022-07-23T13:23:55;9.00;;;8.10;;
7320;SDS011;3701;49.346;8.798;2022-07-23T13:26:24;8.20;;;7.40;;
7320;SDS011;3701;49.346;8.798;2022-07-23T13:28:52;9.53;;;8.53;;
7320;SDS011;3701;49.346;8.798;2022-07-23T13:31:20;8.73;;;7.73;;
7320;SDS011;3701;49.346;8.798;2022-07-23T13:33:45;9.90;;;8.30;;
7320;SDS011;3701;49.346;8.798;2022-07-23T13:36:11;9.93;;;7.30;;
7320;SDS011;3701;49.346;8.798;2022-07-23T13:38:39;8.70;;;7.77;;
7320;SDS011;3701;49.346;8.798;2022-07-23T13:41:07;7.80;;;7.10;;
7320;SDS011;3701;49.346;8.798;2022-07-23T13:43:33;8.37;;;6.50;;
7320;SDS011;3701;49.346;8.798;2022-07-23T13:46:00;7.50;;;6.80;;
7320;SDS011;3701;49.346;8.798;2022-07-23T13:48:28;7.83;;;7.13;;
7320;SDS011;3701;49.346;8.798;2022-07-23T13:50:54;10.70;;;7.50;;
7320;SDS011;3701;49.346;8.798;2022-07-23T13:53:23;7.83;;;7.13;;
7320;SDS011;3701;49.346;8.798;2022-07-23T13:55:53;7.47;;;6.70;;
7320;SDS011;3701;49.346;8.798;2022-07-23T13:58:19;8.20;;;6.87;;
7320;SDS011;3701;49.346;8.798;2022-07-23T14:00:47;7.57;;;6.87;;
7320;SDS011;3701;49.346;8.798;2022-07-23T14:03:20;7.90;;;7.10;;
7320;SDS011;3701;49.346;8.798;2022-07-23T14:05:47;9.00;;;7.30;;
7320;SDS011;3701;49.346;8.798;2022-07-23T14:08:17;8.57;;;7.70;;
7320;SDS011;3701;49.346;8.798;2022-07-23T14:10:43;10.10;;;7.47;;
7320;SDS011;3701;49.346;8.798;2022-07-23T14:13:08;7.80;;;7.10;;
7320;SDS011;3701;49.346;8.798;2022-07-23T14:15:34;7.07;;;6.47;;
7320;SDS011;3701;49.346;8.798;2022-07-23T14:18:03;7.87;;;6.53;;
7320;SDS011;3701;49.346;8.798;2022-07-23T14:20:28;8.33;;;7.17;;
7320;SDS011;3701;49.346;8.798;2022-07-23T14:22:58;9.10;;;7.17;;
7320;SDS011;3701;49.346;8.798;2022-07-23T14:25:25;7.27;;;6.57;;
7320;SDS011;3701;49.346;8.798;2022-07-23T14:27:51;8.43;;;7.33;;
7320;SDS011;3701;49.346;8.798;2022-07-23T14:30:19;8.20;;;7.40;;
7320;SDS011;3701;49.346;8.798;2022-07-23T14:32:45;8.50;;;6.57;;
7320;SDS011;3701;49.346;8.798;2022-07-23T14:35:12;8.77;;;6.90;;
7320;SDS011;3701;49.346;8.798;2022-07-23T14:37:38;8.67;;;6.57;;
7320;SDS011;3701;49.346;8.798;2022-07-23T14:40:06;8.93;;;7.40;;
7320;SDS011;3701;49.346;8.798;2022-07-23T14:42:32;7.93;;;6.80;;
7320;SDS011;3701;49.346;8.798;2022-07-23T14:44:57;10.30;;;7.17;;
7320;SDS011;3701;49.346;8.798;2022-07-23T14:47:22;8.07;;;7.00;;
7320;SDS011;3701;49.346;8.798;2022-07-23T14:49:48;11.70;;;8.23;;
7320;SDS011;3701;49.346;8.798;2022-07-23T14:52:18;9.80;;;7.33;;
7320;SDS011;3701;49.346;8.798;2022-07-23T14:54:44;8.80;;;7.83;;
7320;SDS011;3701;49.346;8.798;2022-07-23T14:57:09;9.00;;;7.27;;
7320;SDS011;3701;49.346;8.798;2022-07-23T14:59:35;9.37;;;7.33;;
7320;SDS011;3701;49.346;8.798;2022-07-23T15:02:02;9.73;;;7.60;;
7320;SDS011;3701;49.346;8.798;2022-07-23T15:04:29;7.70;;;7.07;;
7320;SDS011;3701;49.346;8.798;2022-07-23T15:06:57;8.10;;;7.00;;
7320;SDS011;3701;49.346;8.798;2022-07-23T15:09:22;9.47;;;7.93;;
7320;SDS011;3701;49.346;8.798;2022-07-23T15:11:50;7.90;;;7.10;;
7320;SDS011;3701;49.346;8.798;2022-07-23T15:14:15;8.67;;;7.00;;
7320;SDS011;3701;49.346;8.798;2022-07-23T15:16:41;8.20;;;7.27;;
7320;SDS011;3701;49.346;8.798;2022-07-23T15:19:07;7.50;;;6.80;;
7320;SDS011;3701;49.346;8.798;2022-07-23T15:21:32;8.67;;;7.77;;
7320;SDS011;3701;49.346;8.798;2022-07-23T15:23:57;8.00;;;7.23;;
7320;SDS011;3701;49.346;8.798;2022-07-23T15:26:24;8.60;;;7.27;;
7320;SDS011;3701;49.346;8.798;2022-07-23T15:28:53;7.97;;;7.00;;
7320;SDS011;3701;49.346;8.798;2022-07-23T15:31:19;7.63;;;6.87;;
7320;SDS011;3701;49.346;8.798;2022-07-23T15:33:47;7.53;;;6.80;;
7320;SDS011;3701;49.346;8.798;2022-07-23T15:36:16;10.50;;;7.10;;
7320;SDS011;3701;49.346;8.798;2022-07-23T15:38:43;8.23;;;7.30;;
7320;SDS011;3701;49.346;8.798;2022-07-23T15:41:08;7.80;;;6.87;;
7320;SDS011;3701;49.346;8.798;2022-07-23T15:43:34;7.70;;;6.77;;
7320;SDS011;3701;49.346;8.798;2022-07-23T15:46:02;7.20;;;6.53;;
7320;SDS011;3701;49.346;8.798;2022-07-23T15:48:29;11.07;;;7.17;;
7320;SDS011;3701;49.346;8.798;2022-07-23T15:50:54;7.97;;;7.20;;
7320;SDS011;3701;49.346;8.798;2022-07-23T15:53:20;9.60;;;7.53;;
7320;SDS011;3701;49.346;8.798;2022-07-23T15:55:45;9.43;;;7.10;;
7320;SDS011;3701;49.346;8.798;2022-07-23T15:58:11;7.37;;;6.47;;
7320;SDS011;3701;49.346;8.798;2022-07-23T16:00:40;8.00;;;7.20;;
7320;SDS011;3701;49.346;8.798;2022-07-23T16:03:05;7.57;;;6.87;;
7320;SDS011;3701;49.346;8.798;2022-07-23T16:05:31;8.17;;;7.40;;
7320;SDS011;3701;49.346;8.798;2022-07-23T16:08:00;7.33;;;6.63;;
7320;SDS011;3701;49.346;8.798;2022-07-23T16:10:26;11.10;;;7.17;;